< Cyclone 200713 2007 Season Cyclone 200801 >
Cyclone 200716 (PIERRE)
General InformationTrack Information on Google MapsDetailed Wind InformationList of All Images || ResourceGoogle EarthGE AnimationAtom FeedGeoJSON
Detalied Best Track (Time Zone = UTC)
Year Month Day Hour Lat. Long. Pressure (hPa) Wind (kt) Class Image Chart
2007 5 15 12 -9.6 157.7 1000 30 2 Image --
2007 5 15 18 -9.9 157.6 998 33 2 Image --
2007 5 16 00 -10.4 157.5 995 35 3 Image --
2007 5 16 06 -10.9 157.5 992 35 3 Image --
2007 5 16 12 -10.9 157.2 992 40 3 Image --
2007 5 16 18 -10.7 156.9 990 40 3 Image --
2007 5 17 00 -10.6 156.5 990 40 3 Image --
2007 5 17 06 -10.5 156.0 992 35 3 Image --
2007 5 17 12 -10.5 155.0 995 35 3 Image --
2007 5 17 18 -10.4 154.0 999 30 2 Image --
2007 5 18 00 -10.2 153.4 1004 30 2 Image --
2007 5 18 06 -9.7 152.8 1003 30 2 Image --
2007 5 18 12 -9.4 152.4 1006 25 2 Image --
2007 5 18 18 -9.1 152.0 1005 25 2 Image --
2007 5 19 00 -8.9 151.7 1006 20 2 Image --
2007 5 19 06 -8.7 151.4 1004 20 2 Image --
2007 5 19 12 -8.7 151.2 1008 20 2 Image --
2007 5 19 18 -8.9 150.9 1005 25 2 Image --
2007 5 20 00 -9.1 150.5 1006 30 2 Image --
2007 5 20 06 -9.2 149.3 1005 25 2 Image --
2007 5 20 12 -9.9 147.6 1008 25 2 Image --
2007 5 20 18 -10.3 146.8 1007 30 2 Image --
2007 5 21 00 -10.7 146.0 1008 30 2 Image --
2007 5 21 06 -11.0 145.1 1007 25 2 Image --
2007 5 21 12 -10.8 144.3 1009 25 2 Image --
2007 5 21 18 -10.5 143.6 1008 20 2 Image --
2007 5 22 00 -10.4 142.7 1010 15 2 Image --
2007 5 22 06 -10.1 142.1 1007 15 2 Image --
2007 5 22 12 -9.9 141.1 1009 15 2 Image --
2007 5 22 18 -9.8 140.1 1007 20 2 Image --
2007 5 23 00 -9.9 139.0 1008 25 2 Image --
< Cyclone 200713 2007 Season Cyclone 200801 >

Help